createdAt,value
2018-04-22T00:00:29.219Z,1012.05
2018-04-22T00:01:29.205Z,1012.08
2018-04-22T00:02:29.433Z,1012.05
2018-04-22T00:03:29.430Z,1012.01
2018-04-22T00:04:29.213Z,1011.99
2018-04-22T00:05:29.215Z,1012.02
2018-04-22T00:06:29.222Z,1012.05
2018-04-22T00:07:29.403Z,1012.01
2018-04-22T00:08:29.217Z,1012.00
2018-04-22T00:09:29.414Z,1011.94
2018-04-22T00:10:29.217Z,1012.00
2018-04-22T00:11:29.207Z,1011.98
2018-04-22T00:12:29.221Z,1011.93
2018-04-22T00:13:29.208Z,1011.93
2018-04-22T00:14:29.399Z,1011.93
2018-04-22T00:15:29.405Z,1011.92
2018-04-22T00:16:29.396Z,1011.91
2018-04-22T00:17:29.193Z,1011.99
2018-04-22T00:18:29.204Z,1011.94
2018-04-22T00:19:29.201Z,1011.92
2018-04-22T00:20:29.191Z,1011.93
2018-04-22T00:21:29.198Z,1011.93
2018-04-22T00:22:29.405Z,1011.90
2018-04-22T00:23:29.197Z,1011.89
2018-04-22T00:24:29.200Z,1011.86
2018-04-22T00:25:29.187Z,1011.86
2018-04-22T00:26:29.399Z,1011.85
2018-04-22T00:27:29.195Z,1011.81
2018-04-22T00:28:29.197Z,1011.82
2018-04-22T00:29:29.197Z,1011.78
2018-04-22T00:30:29.203Z,1011.75
2018-04-22T00:31:29.178Z,1011.78
2018-04-22T00:32:29.194Z,1011.74
2018-04-22T00:33:29.191Z,1011.74
2018-04-22T00:34:29.189Z,1011.72
2018-04-22T00:35:29.391Z,1011.70
2018-04-22T00:36:29.177Z,1011.68
2018-04-22T00:37:29.186Z,1011.66
2018-04-22T00:38:29.183Z,1011.63
2018-04-22T00:39:29.174Z,1011.58
2018-04-22T00:40:29.185Z,1011.59
2018-04-22T00:41:29.189Z,1011.55
2018-04-22T00:42:29.384Z,1011.54
2018-04-22T00:43:29.414Z,1011.53
2018-04-22T00:44:29.173Z,1011.46
2018-04-22T00:45:29.382Z,1011.43
2018-04-22T00:46:29.370Z,1011.47
2018-04-22T00:47:29.186Z,1011.49
2018-04-22T00:48:29.369Z,1011.43
2018-04-22T00:49:29.381Z,1011.47
2018-04-22T00:50:29.162Z,1011.47
2018-04-22T00:51:29.180Z,1011.47
2018-04-22T00:52:29.164Z,1011.45
2018-04-22T00:53:29.164Z,1011.43
2018-04-22T00:54:29.171Z,1011.45
2018-04-22T00:55:29.159Z,1011.45
2018-04-22T00:56:29.187Z,1011.40
2018-04-22T00:57:29.170Z,1011.37
2018-04-22T00:58:29.175Z,1011.34
2018-04-22T00:59:29.364Z,1011.31
2018-04-22T01:00:29.370Z,1011.33
2018-04-22T01:01:29.356Z,1011.36
2018-04-22T01:02:29.152Z,1011.33
2018-04-22T01:03:29.364Z,1011.30
2018-04-22T01:04:29.357Z,1011.32
2018-04-22T01:05:29.148Z,1011.29
2018-04-22T01:06:29.350Z,1011.33
2018-04-22T01:07:29.157Z,1011.30
2018-04-22T01:08:29.382Z,1011.31
2018-04-22T01:09:29.146Z,1011.28
2018-04-22T01:10:29.144Z,1011.28
2018-04-22T01:11:29.347Z,1011.28
2018-04-22T01:12:29.157Z,1011.30
2018-04-22T01:13:29.139Z,1011.21
2018-04-22T01:14:29.342Z,1011.20
2018-04-22T01:15:29.137Z,1011.23
2018-04-22T01:16:29.148Z,1011.20
2018-04-22T01:17:29.144Z,1011.18
2018-04-22T01:18:29.336Z,1011.17
2018-04-22T01:19:29.347Z,1011.15
2018-04-22T01:20:29.132Z,1011.10
2018-04-22T01:21:29.142Z,1011.10
2018-04-22T01:22:29.335Z,1011.08
2018-04-22T01:23:29.333Z,1011.10
2018-04-22T01:24:29.139Z,1011.05
2018-04-22T01:25:29.129Z,1011.07
2018-04-22T01:26:29.144Z,1011.04
2018-04-22T01:27:29.143Z,1011.03
2018-04-22T01:28:29.137Z,1011.01
2018-04-22T01:29:29.126Z,1011.01
2018-04-22T01:30:29.353Z,1010.99
2018-04-22T01:31:29.147Z,1010.94
2018-04-22T01:32:29.152Z,1011.03
2018-04-22T01:33:29.136Z,1010.99
2018-04-22T01:34:29.124Z,1010.98
2018-04-22T01:35:29.130Z,1010.99
2018-04-22T01:36:29.124Z,1010.96
2018-04-22T01:37:29.344Z,1010.97
2018-04-22T01:38:29.128Z,1010.98
2018-04-22T01:39:29.118Z,1010.91
2018-04-22T01:40:29.336Z,1010.94
2018-04-22T01:41:29.117Z,1010.92
2018-04-22T01:42:29.117Z,1010.89
2018-04-22T01:43:29.121Z,1010.90
2018-04-22T01:44:29.124Z,1010.88
2018-04-22T01:45:29.325Z,1010.88
2018-04-22T01:46:29.121Z,1010.89
2018-04-22T01:47:29.115Z,1010.88
2018-04-22T01:48:29.124Z,1010.84
2018-04-22T01:49:29.111Z,1010.83
2018-04-22T01:50:29.121Z,1010.84
2018-04-22T01:51:29.110Z,1010.80
2018-04-22T01:52:29.108Z,1010.83
2018-04-22T01:53:29.119Z,1010.83
2018-04-22T01:54:29.103Z,1010.82
2018-04-22T01:55:29.315Z,1010.85
2018-04-22T01:56:29.106Z,1010.80
2018-04-22T01:57:29.099Z,1010.81
2018-04-22T01:58:29.114Z,1010.78
2018-04-22T01:59:29.303Z,1010.82
2018-04-22T02:00:29.297Z,1010.78
2018-04-22T02:01:29.093Z,1010.79
2018-04-22T02:02:29.092Z,1010.78
2018-04-22T02:03:29.091Z,1010.81
2018-04-22T02:04:29.099Z,1010.80
2018-04-22T02:05:29.116Z,1010.79
2018-04-22T02:06:29.086Z,1010.77
2018-04-22T02:07:29.086Z,1010.78
2018-04-22T02:08:29.084Z,1010.75
2018-04-22T02:09:29.103Z,1010.75
2018-04-22T02:10:29.081Z,1010.72
2018-04-22T02:11:29.090Z,1010.76
2018-04-22T02:12:29.283Z,1010.70
2018-04-22T02:13:29.080Z,1010.72
2018-04-22T02:14:29.074Z,1010.69
2018-04-22T02:15:29.074Z,1010.71
2018-04-22T02:16:29.086Z,1010.71
2018-04-22T02:17:29.095Z,1010.70
2018-04-22T02:18:29.333Z,1010.66
2018-04-22T02:19:29.081Z,1010.65
2018-04-22T02:20:29.283Z,1010.62
2018-04-22T02:21:29.074Z,1010.64
2018-04-22T02:22:29.068Z,1010.65
2018-04-22T02:23:29.520Z,1010.58
2018-04-22T02:24:29.090Z,1010.63
2018-04-22T02:25:29.061Z,1010.62
2018-04-22T02:26:29.063Z,1010.58
2018-04-22T02:27:29.074Z,1010.58
2018-04-22T02:28:29.082Z,1010.54
2018-04-22T02:29:29.072Z,1010.56
2018-04-22T02:30:29.054Z,1010.56
2018-04-22T02:31:29.257Z,1010.56
2018-04-22T02:32:29.051Z,1010.53
2018-04-22T02:33:29.067Z,1010.55
2018-04-22T02:34:29.250Z,1010.52
2018-04-22T02:35:29.258Z,1010.51
2018-04-22T02:36:29.047Z,1010.46
2018-04-22T02:37:29.047Z,1010.47
2018-04-22T02:38:29.044Z,1010.45
2018-04-22T02:39:29.248Z,1010.47
2018-04-22T02:40:29.251Z,1010.46
2018-04-22T02:41:29.077Z,1010.42
2018-04-22T02:42:29.039Z,1010.45
2018-04-22T02:43:29.076Z,1010.43
2018-04-22T02:44:29.047Z,1010.46
2018-04-22T02:45:29.040Z,1010.43
2018-04-22T02:46:29.234Z,1010.43
2018-04-22T02:47:29.031Z,1010.43
2018-04-22T02:48:29.047Z,1010.40
2018-04-22T02:49:29.029Z,1010.37
2018-04-22T02:50:29.093Z,1010.34
2018-04-22T02:51:29.022Z,1010.36
2018-04-22T02:52:29.223Z,1010.33
2018-04-22T02:53:29.030Z,1010.32
2018-04-22T02:54:29.022Z,1010.30
2018-04-22T02:55:29.221Z,1010.29
2018-04-22T02:56:29.041Z,1010.28
2018-04-22T02:57:29.216Z,1010.28
2018-04-22T02:58:29.027Z,1010.26
2018-04-22T02:59:29.021Z,1010.23
2018-04-22T03:00:29.020Z,1010.20
2018-04-22T03:01:29.005Z,1010.16
2018-04-22T03:02:29.005Z,1010.20
2018-04-22T03:03:29.218Z,1010.15
2018-04-22T03:04:29.001Z,1010.17
2018-04-22T03:05:29.206Z,1010.16
2018-04-22T03:06:29.000Z,1010.11
2018-04-22T03:07:29.022Z,1010.10
2018-04-22T03:08:29.005Z,1010.05
2018-04-22T03:09:28.994Z,1010.11
2018-04-22T03:10:28.993Z,1010.06
2018-04-22T03:11:28.990Z,1010.07
2018-04-22T03:12:28.989Z,1010.06
2018-04-22T03:13:28.996Z,1010.07
2018-04-22T03:14:28.988Z,1010.04
2018-04-22T03:15:28.990Z,1010.03
2018-04-22T03:16:28.991Z,1010.03
2018-04-22T03:17:29.190Z,1010.03
2018-04-22T03:18:29.204Z,1010.01
2018-04-22T03:19:28.994Z,1010.00
2018-04-22T03:20:28.987Z,1010.02
2018-04-22T03:21:28.977Z,1009.97
2018-04-22T03:22:29.179Z,1009.99
2018-04-22T03:23:29.180Z,1010.00
2018-04-22T03:24:29.180Z,1010.00
2018-04-22T03:25:28.981Z,1009.99
2018-04-22T03:26:29.189Z,1010.00
2018-04-22T03:27:28.982Z,1009.92
2018-04-22T03:28:28.965Z,1009.95
2018-04-22T03:29:28.964Z,1009.91
2018-04-22T03:30:28.979Z,1009.89
2018-04-22T03:31:29.173Z,1009.86
2018-04-22T03:32:28.964Z,1009.83
2018-04-22T03:33:29.181Z,1009.83
2018-04-22T03:34:28.964Z,1009.83
2018-04-22T03:35:28.969Z,1009.83
2018-04-22T03:36:28.965Z,1009.82
2018-04-22T03:37:29.157Z,1009.82
2018-04-22T03:38:28.948Z,1009.78
2018-04-22T03:39:28.945Z,1009.77
2018-04-22T03:40:28.960Z,1009.76
2018-04-22T03:41:28.944Z,1009.73
2018-04-22T03:42:29.015Z,1009.67
2018-04-22T03:43:29.147Z,1009.68
2018-04-22T03:44:28.962Z,1009.67
2018-04-22T03:45:28.936Z,1009.67
2018-04-22T03:46:29.165Z,1009.60
2018-04-22T03:47:28.930Z,1009.57
2018-04-22T03:48:28.951Z,1009.58
2018-04-22T03:49:29.166Z,1009.59
2018-04-22T03:50:28.925Z,1009.51
2018-04-22T03:51:28.938Z,1009.57
2018-04-22T03:52:29.141Z,1009.56
2018-04-22T03:53:28.926Z,1009.47
2018-04-22T03:54:28.933Z,1009.50
2018-04-22T03:55:28.946Z,1009.48
2018-04-22T03:56:28.918Z,1009.47
2018-04-22T03:57:28.924Z,1009.45
2018-04-22T03:58:28.916Z,1009.48
2018-04-22T03:59:28.924Z,1009.46
2018-04-22T04:00:29.128Z,1009.45
2018-04-22T04:01:28.924Z,1009.41
2018-04-22T04:02:29.123Z,1009.46
2018-04-22T04:03:29.133Z,1009.40
2018-04-22T04:04:28.906Z,1009.38
2018-04-22T04:05:28.917Z,1009.37
2018-04-22T04:06:29.118Z,1009.40
2018-04-22T04:07:28.905Z,1009.40
2018-04-22T04:08:28.914Z,1009.39
2018-04-22T04:09:29.104Z,1009.37
2018-04-22T04:10:28.902Z,1009.35
2018-04-22T04:11:29.108Z,1009.37
2018-04-22T04:12:28.901Z,1009.38
2018-04-22T04:13:28.891Z,1009.35
2018-04-22T04:14:28.900Z,1009.32
2018-04-22T04:15:28.896Z,1009.36
2018-04-22T04:16:28.882Z,1009.34
2018-04-22T04:17:28.883Z,1009.31
2018-04-22T04:18:29.089Z,1009.33
2018-04-22T04:19:28.891Z,1009.28
2018-04-22T04:20:29.096Z,1009.30
2018-04-22T04:21:28.886Z,1009.31
2018-04-22T04:22:28.870Z,1009.24
2018-04-22T04:23:28.894Z,1009.28
2018-04-22T04:24:29.090Z,1009.26
2018-04-22T04:25:28.867Z,1009.25
2018-04-22T04:26:28.866Z,1009.23
2018-04-22T04:27:29.088Z,1009.19
2018-04-22T04:28:28.887Z,1009.17
2018-04-22T04:29:28.873Z,1009.17
2018-04-22T04:30:28.856Z,1009.17
2018-04-22T04:31:28.882Z,1009.15
2018-04-22T04:32:28.853Z,1009.12
2018-04-22T04:33:28.863Z,1009.12
2018-04-22T04:34:29.075Z,1009.12
2018-04-22T04:35:28.858Z,1009.13
2018-04-22T04:36:29.060Z,1009.10
2018-04-22T04:37:28.871Z,1009.10
2018-04-22T04:38:28.842Z,1009.08
2018-04-22T04:39:28.841Z,1009.07
2018-04-22T04:40:28.849Z,1009.06
2018-04-22T04:41:29.042Z,1009.05
2018-04-22T04:42:29.066Z,1009.07
2018-04-22T04:43:28.871Z,1009.12
2018-04-22T04:44:28.844Z,1009.05
2018-04-22T04:45:28.841Z,1009.06
2018-04-22T04:46:29.058Z,1009.07
2018-04-22T04:47:28.842Z,1009.06
2018-04-22T04:48:28.853Z,1009.09
2018-04-22T04:49:28.847Z,1009.06
2018-04-22T04:50:29.049Z,1009.08
2018-04-22T04:51:28.839Z,1009.07
2018-04-22T04:52:29.033Z,1009.05
2018-04-22T04:53:28.845Z,1009.06
2018-04-22T04:54:28.839Z,1009.05
2018-04-22T04:55:28.812Z,1009.12
2018-04-22T04:56:28.838Z,1009.12
2018-04-22T04:57:29.013Z,1009.14
2018-04-22T04:58:28.825Z,1009.09
2018-04-22T04:59:28.814Z,1009.15
2018-04-22T05:00:29.006Z,1009.12
2018-04-22T05:01:28.827Z,1009.14
2018-04-22T05:02:28.811Z,1009.10
2018-04-22T05:03:28.806Z,1009.11
2018-04-22T05:04:28.820Z,1009.09
2018-04-22T05:05:28.816Z,1009.10
2018-04-22T05:06:28.813Z,1009.08
2018-04-22T05:07:28.787Z,1009.12
2018-04-22T05:08:28.787Z,1009.08
2018-04-22T05:09:28.799Z,1009.08
2018-04-22T05:10:29.000Z,1009.09
2018-04-22T05:11:28.783Z,1009.09
2018-04-22T05:12:28.776Z,1009.10
2018-04-22T05:13:28.791Z,1009.07
2018-04-22T05:14:28.778Z,1009.09
2018-04-22T05:15:28.772Z,1009.05
2018-04-22T05:16:28.814Z,1009.05
2018-04-22T05:17:28.781Z,1009.07
2018-04-22T05:18:28.794Z,1009.06
2018-04-22T05:19:28.794Z,1009.07
2018-04-22T05:20:28.776Z,1009.05
2018-04-22T05:21:28.789Z,1009.04
2018-04-22T05:22:28.762Z,1009.03
2018-04-22T05:23:28.784Z,1009.04
2018-04-22T05:24:28.778Z,1008.97
2018-04-22T05:25:28.781Z,1008.95
2018-04-22T05:26:28.776Z,1008.98
2018-04-22T05:27:28.956Z,1008.94
2018-04-22T05:28:28.755Z,1008.93
2018-04-22T05:29:28.762Z,1008.95
2018-04-22T05:30:28.759Z,1008.97
2018-04-22T05:31:28.757Z,1009.02
2018-04-22T05:32:28.961Z,1009.04
2018-04-22T05:33:28.768Z,1009.03
2018-04-22T05:34:28.958Z,1009.03
2018-04-22T05:35:28.753Z,1008.99
2018-04-22T05:36:28.970Z,1008.98
2018-04-22T05:37:28.941Z,1008.98
2018-04-22T05:38:28.745Z,1008.97
2018-04-22T05:39:28.761Z,1008.98
2018-04-22T05:40:28.746Z,1008.94
2018-04-22T05:41:28.747Z,1008.98
2018-04-22T05:42:28.739Z,1009.03
2018-04-22T05:43:28.730Z,1009.01
2018-04-22T05:44:28.740Z,1009.02
2018-04-22T05:45:28.736Z,1009.02
2018-04-22T05:46:28.749Z,1009.02
2018-04-22T05:47:28.724Z,1009.06
2018-04-22T05:48:28.924Z,1009.09
2018-04-22T05:49:28.719Z,1009.08
2018-04-22T05:50:28.727Z,1009.05
2018-04-22T05:51:28.715Z,1009.08
2018-04-22T05:52:28.924Z,1009.02
2018-04-22T05:53:28.716Z,1009.00
2018-04-22T05:54:28.724Z,1008.97
2018-04-22T05:55:28.733Z,1008.97
2018-04-22T05:56:28.743Z,1008.97
2018-04-22T05:57:28.727Z,1008.98
2018-04-22T05:58:28.922Z,1008.97
2018-04-22T05:59:28.708Z,1008.96
2018-04-22T06:00:28.718Z,1008.99
2018-04-22T06:01:28.737Z,1008.98
2018-04-22T06:02:28.712Z,1008.95
2018-04-22T06:03:28.928Z,1008.93
2018-04-22T06:04:28.716Z,1008.94
2018-04-22T06:05:28.721Z,1008.91
2018-04-22T06:06:28.706Z,1008.87
2018-04-22T06:07:28.698Z,1008.89
2018-04-22T06:08:28.710Z,1008.88
2018-04-22T06:09:28.717Z,1008.84
2018-04-22T06:10:28.709Z,1008.86
2018-04-22T06:11:28.694Z,1008.84
2018-04-22T06:12:28.896Z,1008.91
2018-04-22T06:13:28.703Z,1008.85
2018-04-22T06:14:28.704Z,1008.85
2018-04-22T06:15:28.916Z,1008.83
2018-04-22T06:16:28.693Z,1008.82
2018-04-22T06:17:28.718Z,1008.85
2018-04-22T06:18:28.712Z,1008.83
2018-04-22T06:19:28.701Z,1008.83
2018-04-22T06:20:28.699Z,1008.84
2018-04-22T06:21:28.696Z,1008.86
2018-04-22T06:22:28.709Z,1008.81
2018-04-22T06:23:28.694Z,1008.78
2018-04-22T06:24:28.683Z,1008.80
2018-04-22T06:25:28.714Z,1008.80
2018-04-22T06:26:28.693Z,1008.78
2018-04-22T06:27:28.682Z,1008.75
2018-04-22T06:28:28.679Z,1008.79
2018-04-22T06:29:28.679Z,1008.80
2018-04-22T06:30:28.691Z,1008.81
2018-04-22T06:31:28.676Z,1008.76
2018-04-22T06:32:28.678Z,1008.74
2018-04-22T06:33:28.678Z,1008.74
2018-04-22T06:34:28.684Z,1008.74
2018-04-22T06:35:28.674Z,1008.71
2018-04-22T06:36:28.676Z,1008.73
2018-04-22T06:37:28.679Z,1008.78
2018-04-22T06:38:28.695Z,1008.77
2018-04-22T06:39:28.710Z,1008.81
2018-04-22T06:40:28.712Z,1008.82
2018-04-22T06:41:28.890Z,1008.92
2018-04-22T06:42:28.688Z,1009.01
2018-04-22T06:43:28.683Z,1009.11
2018-04-22T06:44:28.686Z,1008.96
2018-04-22T06:45:28.688Z,1008.88
2018-04-22T06:46:28.705Z,1008.82
2018-04-22T06:47:28.693Z,1008.78
2018-04-22T06:48:28.674Z,1008.79
2018-04-22T06:49:28.684Z,1008.82
2018-04-22T06:50:28.674Z,1008.85
2018-04-22T06:51:28.670Z,1008.79
2018-04-22T06:52:28.684Z,1008.80
2018-04-22T06:53:28.698Z,1008.78
2018-04-22T06:54:28.668Z,1008.80
2018-04-22T06:55:28.690Z,1008.79
2018-04-22T06:56:28.687Z,1008.81
2018-04-22T06:57:28.700Z,1008.78
2018-04-22T06:58:28.673Z,1008.84
2018-04-22T06:59:28.698Z,1008.81
2018-04-22T07:00:28.672Z,1008.76
2018-04-22T07:01:28.683Z,1008.81
2018-04-22T07:02:28.682Z,1008.78
2018-04-22T07:03:28.674Z,1008.72
2018-04-22T07:04:28.675Z,1008.74
2018-04-22T07:05:28.715Z,1008.78
2018-04-22T07:06:28.903Z,1008.76
2018-04-22T07:07:28.711Z,1008.75
2018-04-22T07:08:28.697Z,1008.76
2018-04-22T07:09:28.676Z,1008.73
2018-04-22T07:10:28.688Z,1008.78
2018-04-22T07:11:28.705Z,1008.80
2018-04-22T07:12:28.679Z,1008.77
2018-04-22T07:13:28.703Z,1008.78
2018-04-22T07:14:28.691Z,1008.78
2018-04-22T07:15:28.678Z,1008.79
2018-04-22T07:16:28.894Z,1008.78
2018-04-22T07:17:28.694Z,1008.84
2018-04-22T07:18:28.694Z,1008.88
2018-04-22T07:19:28.904Z,1008.84
2018-04-22T07:20:28.885Z,1008.87
2018-04-22T07:21:28.685Z,1008.87
2018-04-22T07:22:28.693Z,1008.86
2018-04-22T07:23:28.687Z,1008.89
2018-04-22T07:24:28.688Z,1008.89
2018-04-22T07:25:28.902Z,1008.89
2018-04-22T07:26:28.686Z,1008.91
2018-04-22T07:27:28.913Z,1008.92
2018-04-22T07:28:28.690Z,1008.93
2018-04-22T07:29:28.697Z,1008.87
2018-04-22T07:30:28.689Z,1008.90
2018-04-22T07:31:28.701Z,1008.88
2018-04-22T07:32:28.690Z,1008.91
2018-04-22T07:33:28.908Z,1008.91
2018-04-22T07:34:28.692Z,1008.90
2018-04-22T07:35:28.728Z,1008.90
2018-04-22T07:36:28.716Z,1008.94
2018-04-22T07:37:28.699Z,1008.89
2018-04-22T07:38:28.695Z,1008.92
2018-04-22T07:39:28.912Z,1008.89
2018-04-22T07:40:28.702Z,1008.89
2018-04-22T07:41:28.709Z,1008.92
2018-04-22T07:42:28.736Z,1008.91
2018-04-22T07:43:28.906Z,1008.84
2018-04-22T07:44:28.712Z,1008.86
2018-04-22T07:45:28.718Z,1008.88
2018-04-22T07:46:28.706Z,1008.88
2018-04-22T07:47:28.706Z,1008.88
2018-04-22T07:48:28.723Z,1008.84
2018-04-22T07:49:28.722Z,1008.91
2018-04-22T07:50:28.708Z,1008.86
2018-04-22T07:51:28.725Z,1008.85
2018-04-22T07:52:28.711Z,1008.86
2018-04-22T07:53:28.774Z,1008.88
2018-04-22T07:54:28.714Z,1008.86
2018-04-22T07:55:28.724Z,1008.82
2018-04-22T07:56:28.727Z,1008.82
2018-04-22T07:57:28.727Z,1008.83
2018-04-22T07:58:28.732Z,1008.80
2018-04-22T07:59:28.724Z,1008.80
2018-04-22T08:00:28.721Z,1008.85
2018-04-22T08:01:28.724Z,1008.78
2018-04-22T08:02:28.724Z,1008.83
2018-04-22T08:03:28.931Z,1008.77
2018-04-22T08:04:28.777Z,1008.77
2018-04-22T08:05:28.753Z,1008.77
2018-04-22T08:06:28.731Z,1008.78
2018-04-22T08:07:28.733Z,1008.72
2018-04-22T08:08:28.746Z,1008.71
2018-04-22T08:09:28.961Z,1008.74
2018-04-22T08:10:28.747Z,1008.76
2018-04-22T08:11:28.740Z,1008.78
2018-04-22T08:12:28.752Z,1008.79
2018-04-22T08:13:28.768Z,1008.76
2018-04-22T08:14:28.742Z,1008.71
2018-04-22T08:15:28.949Z,1008.72
2018-04-22T08:16:28.748Z,1008.71
2018-04-22T08:17:28.753Z,1008.69
2018-04-22T08:18:28.760Z,1008.72
2018-04-22T08:19:28.757Z,1008.64
2018-04-22T08:20:28.972Z,1008.68
2018-04-22T08:21:28.770Z,1008.62
2018-04-22T08:22:28.965Z,1008.64
2018-04-22T08:23:28.986Z,1008.72
2018-04-22T08:24:28.773Z,1008.72
2018-04-22T08:25:28.780Z,1008.71
2018-04-22T08:26:28.980Z,1008.74
2018-04-22T08:27:28.770Z,1008.73
2018-04-22T08:28:28.801Z,1008.71
2018-04-22T08:29:28.784Z,1008.70
2018-04-22T08:30:28.785Z,1008.70
2018-04-22T08:31:28.788Z,1008.69
2018-04-22T08:32:28.985Z,1008.69
2018-04-22T08:33:28.782Z,1008.70
2018-04-22T08:34:29.002Z,1008.77
2018-04-22T08:35:28.786Z,1008.73
2018-04-22T08:36:29.013Z,1008.67
2018-04-22T08:37:28.802Z,1008.72
2018-04-22T08:38:28.998Z,1008.97
2018-04-22T08:39:28.811Z,1008.91
2018-04-22T08:40:29.014Z,1008.94
2018-04-22T08:41:29.021Z,1008.76
2018-04-22T08:42:28.812Z,1009.02
2018-04-22T08:43:28.822Z,1008.78
2018-04-22T08:44:28.811Z,1008.81
2018-04-22T08:45:28.814Z,1008.78
2018-04-22T08:46:28.815Z,1008.80
2018-04-22T08:47:28.822Z,1008.80
2018-04-22T08:48:28.854Z,1008.82
2018-04-22T08:49:28.850Z,1008.88
2018-04-22T08:50:28.843Z,1008.93
2018-04-22T08:51:28.850Z,1008.97
2018-04-22T08:52:29.076Z,1008.91
2018-04-22T08:53:28.859Z,1008.92
2018-04-22T08:54:29.078Z,1008.95
2018-04-22T08:55:28.866Z,1008.88
2018-04-22T08:56:28.896Z,1008.89
2018-04-22T08:57:28.885Z,1008.75
2018-04-22T08:58:28.870Z,1008.74
2018-04-22T08:59:28.873Z,1008.71
2018-04-22T09:00:28.891Z,1008.74
2018-04-22T09:01:28.885Z,1008.74
2018-04-22T09:02:28.888Z,1008.73
2018-04-22T09:03:28.903Z,1008.71
2018-04-22T09:04:28.920Z,1008.71
2018-04-22T09:05:28.937Z,1008.76
2018-04-22T09:06:28.901Z,1008.74
2018-04-22T09:07:28.945Z,1008.73
2018-04-22T09:08:28.920Z,1008.70
2018-04-22T09:09:29.122Z,1008.67
2018-04-22T09:10:28.917Z,1008.65
2018-04-22T09:11:28.932Z,1008.62
2018-04-22T09:12:28.928Z,1008.61
2018-04-22T09:13:28.926Z,1008.60
2018-04-22T09:14:28.945Z,1008.60
2018-04-22T09:15:28.957Z,1008.58
2018-04-22T09:16:28.975Z,1008.52
2018-04-22T09:17:28.941Z,1008.52
2018-04-22T09:18:28.951Z,1008.51
2018-04-22T09:19:28.946Z,1008.55
2018-04-22T09:20:28.948Z,1008.58
2018-04-22T09:21:28.964Z,1008.57
2018-04-22T09:22:28.969Z,1008.55
2018-04-22T09:23:28.956Z,1008.53
2018-04-22T09:24:28.984Z,1008.51
2018-04-22T09:25:28.970Z,1008.50
2018-04-22T09:26:28.966Z,1008.48
2018-04-22T09:27:28.967Z,1008.45
2018-04-22T09:28:28.981Z,1008.46
2018-04-22T09:29:28.975Z,1008.42
2018-04-22T09:30:28.987Z,1008.45
2018-04-22T09:31:28.980Z,1008.49
2018-04-22T09:32:28.994Z,1008.47
2018-04-22T09:33:28.997Z,1008.48
2018-04-22T09:34:28.984Z,1008.45
2018-04-22T09:35:28.986Z,1008.40
2018-04-22T09:36:28.990Z,1008.41
2018-04-22T09:37:28.996Z,1008.40
2018-04-22T09:38:29.012Z,1008.42
2018-04-22T09:39:28.999Z,1008.46
2018-04-22T09:40:29.004Z,1008.43
2018-04-22T09:41:29.015Z,1008.41
2018-04-22T09:42:29.004Z,1008.46
2018-04-22T09:43:29.030Z,1008.42
2018-04-22T09:44:29.022Z,1008.42
2018-04-22T09:45:29.055Z,1008.43
2018-04-22T09:46:29.028Z,1008.45
2018-04-22T09:47:29.015Z,1008.43
2018-04-22T09:48:29.034Z,1008.42
2018-04-22T09:49:29.036Z,1008.41
2018-04-22T09:50:29.025Z,1008.35
2018-04-22T09:51:29.026Z,1008.34
2018-04-22T09:52:29.028Z,1008.34
2018-04-22T09:53:29.043Z,1008.36
2018-04-22T09:54:29.058Z,1008.39
2018-04-22T09:55:29.032Z,1008.37
2018-04-22T09:56:29.043Z,1008.36
2018-04-22T09:57:29.066Z,1008.37
2018-04-22T09:58:29.054Z,1008.36
2018-04-22T09:59:29.061Z,1008.35
2018-04-22T10:00:29.062Z,1008.35
2018-04-22T10:01:29.060Z,1008.39
2018-04-22T10:02:29.066Z,1008.35
2018-04-22T10:03:29.077Z,1008.37
2018-04-22T10:04:29.072Z,1008.34
2018-04-22T10:05:29.058Z,1008.34
2018-04-22T10:06:29.074Z,1008.30
2018-04-22T10:07:29.067Z,1008.27
2018-04-22T10:08:29.080Z,1008.26
2018-04-22T10:09:29.078Z,1008.26
2018-04-22T10:10:29.083Z,1008.19
2018-04-22T10:11:29.093Z,1008.16
2018-04-22T10:12:29.096Z,1008.17
2018-04-22T10:13:29.080Z,1008.16
2018-04-22T10:14:29.078Z,1008.19
2018-04-22T10:15:29.082Z,1008.16
2018-04-22T10:16:29.130Z,1008.15
2018-04-22T10:17:29.111Z,1008.07
2018-04-22T10:18:29.098Z,1008.10
2018-04-22T10:19:29.089Z,1008.10
2018-04-22T10:20:29.091Z,1008.10
2018-04-22T10:21:29.114Z,1008.08
2018-04-22T10:22:29.107Z,1008.02
2018-04-22T10:23:29.108Z,1008.01
2018-04-22T10:24:29.099Z,1007.97
2018-04-22T10:25:29.114Z,1007.94
2018-04-22T10:26:29.120Z,1007.99
2018-04-22T10:27:29.106Z,1007.94
2018-04-22T10:28:29.127Z,1007.89
2018-04-22T10:29:29.110Z,1007.91
2018-04-22T10:30:29.123Z,1007.92
2018-04-22T10:31:29.128Z,1007.87
2018-04-22T10:32:29.140Z,1007.83
2018-04-22T10:33:29.143Z,1007.83
2018-04-22T10:34:29.135Z,1007.81
2018-04-22T10:35:29.125Z,1007.81
2018-04-22T10:36:29.135Z,1007.85
2018-04-22T10:37:29.149Z,1007.81
2018-04-22T10:38:29.141Z,1007.76
2018-04-22T10:39:29.143Z,1007.76
2018-04-22T10:40:29.147Z,1007.72
2018-04-22T10:41:29.137Z,1007.75
2018-04-22T10:42:29.146Z,1007.77
2018-04-22T10:43:29.149Z,1007.74
2018-04-22T10:44:29.141Z,1007.75
2018-04-22T10:45:29.145Z,1007.78
2018-04-22T10:46:29.352Z,1007.77
2018-04-22T10:47:29.151Z,1007.77
2018-04-22T10:48:29.162Z,1007.72
2018-04-22T10:49:29.154Z,1007.64
2018-04-22T10:50:29.165Z,1007.63
2018-04-22T10:51:29.177Z,1007.64
2018-04-22T10:52:29.160Z,1007.61
2018-04-22T10:53:29.164Z,1007.60
2018-04-22T10:54:29.171Z,1007.63
2018-04-22T10:55:29.178Z,1007.55
2018-04-22T10:56:29.168Z,1007.55
2018-04-22T10:57:29.168Z,1007.51
2018-04-22T10:58:29.205Z,1007.49
2018-04-22T10:59:29.171Z,1007.50
2018-04-22T11:00:29.190Z,1007.45
2018-04-22T11:01:29.181Z,1007.50
2018-04-22T11:02:29.178Z,1007.47
2018-04-22T11:03:29.203Z,1007.47
2018-04-22T11:04:29.184Z,1007.42
2018-04-22T11:05:29.248Z,1007.43
2018-04-22T11:06:29.185Z,1007.41
2018-04-22T11:07:29.200Z,1007.32
2018-04-22T11:08:29.208Z,1007.29
2018-04-22T11:09:29.196Z,1007.32
2018-04-22T11:10:29.204Z,1007.30
2018-04-22T11:11:29.214Z,1007.31
2018-04-22T11:12:29.408Z,1007.33
2018-04-22T11:13:29.205Z,1007.27
2018-04-22T11:14:29.408Z,1007.28
2018-04-22T11:15:29.230Z,1007.27
2018-04-22T11:16:29.226Z,1007.25
2018-04-22T11:17:29.256Z,1007.22
2018-04-22T11:18:29.215Z,1007.22
2018-04-22T11:19:29.229Z,1007.21
2018-04-22T11:20:29.231Z,1007.21
2018-04-22T11:21:29.426Z,1007.24
2018-04-22T11:22:29.235Z,1007.21
2018-04-22T11:23:29.444Z,1007.21
2018-04-22T11:24:29.239Z,1007.10
2018-04-22T11:25:29.231Z,1007.09
2018-04-22T11:26:29.234Z,1007.07
2018-04-22T11:27:29.234Z,1007.12
2018-04-22T11:28:29.236Z,1007.06
2018-04-22T11:29:29.251Z,1007.10
2018-04-22T11:30:29.242Z,1007.12
2018-04-22T11:31:29.247Z,1007.15
2018-04-22T11:32:29.247Z,1007.09
2018-04-22T11:33:29.271Z,1007.02
2018-04-22T11:34:29.249Z,1007.01
2018-04-22T11:35:29.462Z,1006.90
2018-04-22T11:36:29.267Z,1006.92
2018-04-22T11:37:29.269Z,1006.86
2018-04-22T11:38:29.269Z,1006.83
2018-04-22T11:39:29.260Z,1006.81
2018-04-22T11:40:29.273Z,1006.83
2018-04-22T11:41:29.280Z,1006.86
2018-04-22T11:42:29.270Z,1006.84
2018-04-22T11:43:29.273Z,1006.81
2018-04-22T11:44:29.301Z,1006.81
2018-04-22T11:45:29.288Z,1006.78
2018-04-22T11:46:29.302Z,1006.80
2018-04-22T11:47:29.289Z,1006.82
2018-04-22T11:48:29.310Z,1006.76
2018-04-22T11:49:29.308Z,1006.76
2018-04-22T11:50:29.287Z,1006.70
2018-04-22T11:51:29.288Z,1006.71
2018-04-22T11:52:29.289Z,1006.68
2018-04-22T11:53:29.301Z,1006.66
2018-04-22T11:54:29.307Z,1006.64
2018-04-22T11:55:29.299Z,1006.64
2018-04-22T11:56:29.302Z,1006.67
2018-04-22T11:57:29.315Z,1006.62
2018-04-22T11:58:29.304Z,1006.64
2018-04-22T11:59:29.317Z,1006.65
2018-04-22T12:00:29.319Z,1006.65
2018-04-22T12:01:29.312Z,1006.65
2018-04-22T12:02:29.348Z,1006.67
2018-04-22T12:03:29.316Z,1006.66
2018-04-22T12:04:29.329Z,1006.62
2018-04-22T12:05:29.522Z,1006.61